sensor_id;sensor_type;location;lat;lon;timestamp;pressure;altitude;pressure_sealevel;temperature;humidity
56600;BME280;51832;48.152;11.530;2023-12-28T00:01:04;95681.75;;;9.38;42.03
56600;BME280;51832;48.152;11.530;2023-12-28T00:06:05;95676.94;;;9.22;42.11
56600;BME280;51832;48.152;11.530;2023-12-28T00:11:06;95676.34;;;9.20;42.45
56600;BME280;51832;48.152;11.530;2023-12-28T00:16:06;95675.31;;;9.27;42.30
56600;BME280;51832;48.152;11.530;2023-12-28T00:21:07;95682.72;;;9.44;42.09
56600;BME280;51832;48.152;11.530;2023-12-28T00:26:07;95681.84;;;9.12;42.44
56600;BME280;51832;48.152;11.530;2023-12-28T00:31:09;95673.81;;;9.00;42.53
56600;BME280;51832;48.152;11.530;2023-12-28T00:36:09;95660.22;;;9.10;42.26
56600;BME280;51832;48.152;11.530;2023-12-28T00:41:10;95660.13;;;9.36;41.75
56600;BME280;51832;48.152;11.530;2023-12-28T00:46:10;95671.38;;;9.56;41.23
56600;BME280;51832;48.152;11.530;2023-12-28T00:51:11;95690.69;;;9.17;41.38
56600;BME280;51832;48.152;11.530;2023-12-28T00:56:11;95688.25;;;9.22;40.93
56600;BME280;51832;48.152;11.530;2023-12-28T01:01:12;95685.97;;;9.39;40.42
56600;BME280;51832;48.152;11.530;2023-12-28T01:06:12;95691.34;;;9.57;39.46
56600;BME280;51832;48.152;11.530;2023-12-28T01:11:13;95691.19;;;9.52;40.39
56600;BME280;51832;48.152;11.530;2023-12-28T01:16:13;95696.50;;;9.33;41.13
56600;BME280;51832;48.152;11.530;2023-12-28T01:21:14;95696.50;;;9.33;40.87
56600;BME280;51832;48.152;11.530;2023-12-28T01:26:14;95712.66;;;9.30;41.06
56600;BME280;51832;48.152;11.530;2023-12-28T01:31:15;95713.66;;;9.42;40.89
56600;BME280;51832;48.152;11.530;2023-12-28T01:36:21;95722.53;;;9.41;41.16
56600;BME280;51832;48.152;11.530;2023-12-28T01:41:22;95729.38;;;9.55;40.85
56600;BME280;51832;48.152;11.530;2023-12-28T01:46:23;95727.03;;;9.27;41.80
56600;BME280;51832;48.152;11.530;2023-12-28T01:51:24;95728.41;;;9.43;41.50
56600;BME280;51832;48.152;11.530;2023-12-28T01:56:25;95721.16;;;9.32;40.72
56600;BME280;51832;48.152;11.530;2023-12-28T02:01:26;95710.31;;;9.66;40.06
56600;BME280;51832;48.152;11.530;2023-12-28T02:06:26;95713.09;;;9.71;39.93
56600;BME280;51832;48.152;11.530;2023-12-28T02:11:27;95721.44;;;10.06;38.87
56600;BME280;51832;48.152;11.530;2023-12-28T02:16:43;95720.88;;;9.97;39.07
56600;BME280;51832;48.152;11.530;2023-12-28T02:21:46;95722.69;;;9.97;39.16
56600;BME280;51832;48.152;11.530;2023-12-28T02:26:47;95728.81;;;9.84;39.08
56600;BME280;51832;48.152;11.530;2023-12-28T02:31:58;95726.41;;;9.83;39.21
56600;BME280;51832;48.152;11.530;2023-12-28T02:37:01;95729.59;;;9.85;39.22
56600;BME280;51832;48.152;11.530;2023-12-28T02:42:03;95723.72;;;9.45;40.26
56600;BME280;51832;48.152;11.530;2023-12-28T02:47:03;95716.44;;;9.47;40.40
56600;BME280;51832;48.152;11.530;2023-12-28T02:52:04;95720.94;;;9.33;40.58
56600;BME280;51832;48.152;11.530;2023-12-28T02:57:05;95713.22;;;9.45;40.55
56600;BME280;51832;48.152;11.530;2023-12-28T03:02:05;95710.59;;;9.45;39.79
56600;BME280;51832;48.152;11.530;2023-12-28T03:07:08;95712.75;;;9.68;39.87
56600;BME280;51832;48.152;11.530;2023-12-28T03:12:08;95717.00;;;9.62;39.51
56600;BME280;51832;48.152;11.530;2023-12-28T03:17:09;95718.81;;;9.68;39.04
56600;BME280;51832;48.152;11.530;2023-12-28T03:22:10;95718.16;;;9.73;39.21
56600;BME280;51832;48.152;11.530;2023-12-28T03:27:10;95714.97;;;9.64;39.00
56600;BME280;51832;48.152;11.530;2023-12-28T03:32:11;95714.16;;;9.70;38.63
56600;BME280;51832;48.152;11.530;2023-12-28T03:37:12;95714.50;;;9.74;38.78
56600;BME280;51832;48.152;11.530;2023-12-28T03:42:13;95703.47;;;9.58;39.33
56600;BME280;51832;48.152;11.530;2023-12-28T03:47:14;95706.69;;;9.67;39.01
56600;BME280;51832;48.152;11.530;2023-12-28T03:52:14;95707.28;;;9.62;38.76
56600;BME280;51832;48.152;11.530;2023-12-28T03:57:15;95707.56;;;9.86;38.22
56600;BME280;51832;48.152;11.530;2023-12-28T04:02:15;95716.31;;;9.80;37.71
56600;BME280;51832;48.152;11.530;2023-12-28T04:07:16;95717.50;;;9.84;37.09
56600;BME280;51832;48.152;11.530;2023-12-28T04:12:16;95726.00;;;9.79;37.13
56600;BME280;51832;48.152;11.530;2023-12-28T04:17:17;95739.50;;;9.96;36.95
56600;BME280;51832;48.152;11.530;2023-12-28T04:22:17;95734.97;;;10.03;36.73
56600;BME280;51832;48.152;11.530;2023-12-28T04:27:17;95736.53;;;10.24;36.35
56600;BME280;51832;48.152;11.530;2023-12-28T04:32:18;95733.97;;;10.04;36.62
56600;BME280;51832;48.152;11.530;2023-12-28T04:37:18;95734.78;;;9.98;36.57
56600;BME280;51832;48.152;11.530;2023-12-28T04:42:19;95736.13;;;9.82;37.44
56600;BME280;51832;48.152;11.530;2023-12-28T04:47:19;95738.28;;;9.92;36.81
56600;BME280;51832;48.152;11.530;2023-12-28T04:52:20;95739.56;;;9.83;37.39
56600;BME280;51832;48.152;11.530;2023-12-28T04:57:20;95740.53;;;9.88;36.99
56600;BME280;51832;48.152;11.530;2023-12-28T05:02:21;95744.69;;;10.03;37.17
56600;BME280;51832;48.152;11.530;2023-12-28T05:07:21;95744.38;;;9.86;37.24
56600;BME280;51832;48.152;11.530;2023-12-28T05:12:22;95751.44;;;9.92;37.23
56600;BME280;51832;48.152;11.530;2023-12-28T05:17:22;95750.94;;;9.70;37.88
56600;BME280;51832;48.152;11.530;2023-12-28T05:22:22;95767.19;;;9.92;37.14
56600;BME280;51832;48.152;11.530;2023-12-28T05:27:23;95759.78;;;9.82;37.25
56600;BME280;51832;48.152;11.530;2023-12-28T05:32:23;95777.97;;;9.71;37.48
56600;BME280;51832;48.152;11.530;2023-12-28T05:37:24;95760.78;;;9.75;37.56
56600;BME280;51832;48.152;11.530;2023-12-28T05:42:24;95764.03;;;9.77;37.60
56600;BME280;51832;48.152;11.530;2023-12-28T05:47:25;95776.66;;;9.48;37.92
56600;BME280;51832;48.152;11.530;2023-12-28T05:52:25;95771.09;;;9.83;37.45
56600;BME280;51832;48.152;11.530;2023-12-28T05:57:26;95776.09;;;9.91;37.33
56600;BME280;51832;48.152;11.530;2023-12-28T06:02:30;95774.53;;;9.83;37.31
56600;BME280;51832;48.152;11.530;2023-12-28T06:07:30;95780.69;;;10.02;37.27
56600;BME280;51832;48.152;11.530;2023-12-28T06:12:30;95773.47;;;9.91;37.79
56600;BME280;51832;48.152;11.530;2023-12-28T06:17:31;95771.25;;;9.88;37.71
56600;BME280;51832;48.152;11.530;2023-12-28T06:22:31;95769.03;;;9.85;37.42
56600;BME280;51832;48.152;11.530;2023-12-28T06:27:32;95772.66;;;9.90;37.44
56600;BME280;51832;48.152;11.530;2023-12-28T06:32:32;95764.78;;;9.90;37.00
56600;BME280;51832;48.152;11.530;2023-12-28T06:37:33;95768.22;;;9.91;37.40
56600;BME280;51832;48.152;11.530;2023-12-28T06:42:33;95759.97;;;9.81;37.30
56600;BME280;51832;48.152;11.530;2023-12-28T06:47:34;95770.00;;;9.97;36.81
56600;BME280;51832;48.152;11.530;2023-12-28T06:52:34;95764.16;;;9.88;37.37
56600;BME280;51832;48.152;11.530;2023-12-28T06:57:35;95763.97;;;9.90;37.60
56600;BME280;51832;48.152;11.530;2023-12-28T07:02:35;95769.28;;;9.83;37.76
56600;BME280;51832;48.152;11.530;2023-12-28T07:07:36;95768.88;;;9.80;38.27
56600;BME280;51832;48.152;11.530;2023-12-28T07:12:37;95760.19;;;9.73;38.19
56600;BME280;51832;48.152;11.530;2023-12-28T07:17:37;95752.28;;;9.79;38.20
56600;BME280;51832;48.152;11.530;2023-12-28T07:22:39;95753.13;;;9.73;38.30
56600;BME280;51832;48.152;11.530;2023-12-28T07:27:39;95756.69;;;9.92;38.27
56600;BME280;51832;48.152;11.530;2023-12-28T07:32:41;95762.06;;;10.10;37.78
56600;BME280;51832;48.152;11.530;2023-12-28T07:37:42;95756.97;;;10.15;37.81
56600;BME280;51832;48.152;11.530;2023-12-28T07:42:42;95764.25;;;10.13;38.14
56600;BME280;51832;48.152;11.530;2023-12-28T07:47:43;95771.72;;;10.23;37.45
56600;BME280;51832;48.152;11.530;2023-12-28T07:52:45;95765.19;;;10.32;37.37
56600;BME280;51832;48.152;11.530;2023-12-28T07:57:46;95771.16;;;10.46;37.16
56600;BME280;51832;48.152;11.530;2023-12-28T08:02:47;95773.19;;;10.75;36.69
56600;BME280;51832;48.152;11.530;2023-12-28T08:07:47;95781.19;;;10.87;36.20
56600;BME280;51832;48.152;11.530;2023-12-28T08:12:48;95789.72;;;11.07;36.13
56600;BME280;51832;48.152;11.530;2023-12-28T08:17:48;95779.69;;;11.40;35.22
56600;BME280;51832;48.152;11.530;2023-12-28T08:22:49;95784.13;;;11.40;35.70
56600;BME280;51832;48.152;11.530;2023-12-28T08:27:49;95790.59;;;11.44;35.29
56600;BME280;51832;48.152;11.530;2023-12-28T08:32:50;95790.03;;;11.60;34.72
56600;BME280;51832;48.152;11.530;2023-12-28T08:37:50;95801.75;;;11.83;34.81
56600;BME280;51832;48.152;11.530;2023-12-28T08:42:51;95793.19;;;12.17;34.01
56600;BME280;51832;48.152;11.530;2023-12-28T08:47:51;95803.84;;;12.10;34.19
56600;BME280;51832;48.152;11.530;2023-12-28T08:52:52;95794.56;;;12.38;33.81
56600;BME280;51832;48.152;11.530;2023-12-28T08:57:53;95799.44;;;12.23;33.94
56600;BME280;51832;48.152;11.530;2023-12-28T09:02:53;95807.72;;;12.56;33.55
56600;BME280;51832;48.152;11.530;2023-12-28T09:07:54;95806.44;;;12.59;33.28
56600;BME280;51832;48.152;11.530;2023-12-28T09:12:54;95805.69;;;12.70;33.64
56600;BME280;51832;48.152;11.530;2023-12-28T09:17:56;95799.09;;;12.61;33.57
56600;BME280;51832;48.152;11.530;2023-12-28T09:22:56;95791.78;;;12.74;33.71
56600;BME280;51832;48.152;11.530;2023-12-28T09:27:57;95800.13;;;12.60;34.03
56600;BME280;51832;48.152;11.530;2023-12-28T09:32:57;95794.16;;;12.53;33.96
56600;BME280;51832;48.152;11.530;2023-12-28T09:37:58;95798.31;;;12.72;33.55
56600;BME280;51832;48.152;11.530;2023-12-28T09:48:20;95782.13;;;13.22;32.96
56600;BME280;51832;48.152;11.530;2023-12-28T09:53:22;95774.88;;;13.40;32.06
56600;BME280;51832;48.152;11.530;2023-12-28T09:58:23;95773.16;;;13.34;32.38
56600;BME280;51832;48.152;11.530;2023-12-28T10:03:24;95782.84;;;13.80;31.80
56600;BME280;51832;48.152;11.530;2023-12-28T10:08:24;95784.19;;;14.46;30.89
56600;BME280;51832;48.152;11.530;2023-12-28T10:13:25;95791.81;;;14.31;30.54
56600;BME280;51832;48.152;11.530;2023-12-28T10:18:26;95791.25;;;13.89;31.34
56600;BME280;51832;48.152;11.530;2023-12-28T10:23:26;95789.81;;;14.38;31.42
56600;BME280;51832;48.152;11.530;2023-12-28T10:28:27;95786.97;;;14.28;31.25
56600;BME280;51832;48.152;11.530;2023-12-28T10:33:27;95771.72;;;14.18;31.60
56600;BME280;51832;48.152;11.530;2023-12-28T10:38:33;95766.06;;;14.55;30.67
56600;BME280;51832;48.152;11.530;2023-12-28T10:43:45;95757.22;;;14.21;31.44
56600;BME280;51832;48.152;11.530;2023-12-28T10:48:46;95757.53;;;14.53;30.91
56600;BME280;51832;48.152;11.530;2023-12-28T10:53:59;95755.31;;;14.05;31.01
56600;BME280;51832;48.152;11.530;2023-12-28T10:59:14;95754.25;;;14.63;30.38
56600;BME280;51832;48.152;11.530;2023-12-28T11:09:31;95739.97;;;14.47;30.82
56600;BME280;51832;48.152;11.530;2023-12-28T11:14:32;95742.31;;;14.60;31.09
56600;BME280;51832;48.152;11.530;2023-12-28T11:19:34;95732.84;;;14.81;30.80
56600;BME280;51832;48.152;11.530;2023-12-28T11:24:36;95735.97;;;14.94;30.80
56600;BME280;51832;48.152;11.530;2023-12-28T11:29:36;95729.78;;;15.06;30.39
56600;BME280;51832;48.152;11.530;2023-12-28T11:34:37;95722.72;;;14.94;30.29
56600;BME280;51832;48.152;11.530;2023-12-28T11:39:38;95708.91;;;15.09;30.35
56600;BME280;51832;48.152;11.530;2023-12-28T11:44:44;95697.72;;;15.07;30.73
56600;BME280;51832;48.152;11.530;2023-12-28T11:49:44;95706.09;;;14.99;30.92
56600;BME280;51832;48.152;11.530;2023-12-28T11:54:49;95706.34;;;14.81;31.07
56600;BME280;51832;48.152;11.530;2023-12-28T11:59:55;95697.84;;;14.79;30.98
56600;BME280;51832;48.152;11.530;2023-12-28T12:04:56;95713.41;;;14.58;31.38
56600;BME280;51832;48.152;11.530;2023-12-28T12:10:02;95708.09;;;14.92;31.26
56600;BME280;51832;48.152;11.530;2023-12-28T12:15:02;95704.28;;;14.83;31.62
56600;BME280;51832;48.152;11.530;2023-12-28T12:20:03;95698.72;;;14.68;31.67
56600;BME280;51832;48.152;11.530;2023-12-28T12:25:05;95696.16;;;14.89;31.66
56600;BME280;51832;48.152;11.530;2023-12-28T12:30:07;95696.94;;;14.40;32.12
56600;BME280;51832;48.152;11.530;2023-12-28T12:35:07;95681.44;;;14.32;32.24
56600;BME280;51832;48.152;11.530;2023-12-28T12:40:08;95681.91;;;14.29;32.36
56600;BME280;51832;48.152;11.530;2023-12-28T12:45:09;95680.03;;;14.57;32.07
56600;BME280;51832;48.152;11.530;2023-12-28T12:50:09;95676.66;;;14.45;32.19
56600;BME280;51832;48.152;11.530;2023-12-28T12:55:11;95676.84;;;14.27;32.29
56600;BME280;51832;48.152;11.530;2023-12-28T13:00:13;95674.31;;;14.49;32.29
56600;BME280;51832;48.152;11.530;2023-12-28T13:05:13;95682.13;;;14.55;32.32
56600;BME280;51832;48.152;11.530;2023-12-28T13:10:14;95675.34;;;14.31;32.94
56600;BME280;51832;48.152;11.530;2023-12-28T13:15:14;95667.16;;;14.33;33.14
56600;BME280;51832;48.152;11.530;2023-12-28T13:20:15;95680.16;;;14.34;33.30
56600;BME280;51832;48.152;11.530;2023-12-28T13:25:15;95677.63;;;14.56;33.32
56600;BME280;51832;48.152;11.530;2023-12-28T13:30:15;95684.97;;;14.37;33.94
56600;BME280;51832;48.152;11.530;2023-12-28T13:35:17;95685.50;;;14.22;34.36
56600;BME280;51832;48.152;11.530;2023-12-28T13:40:18;95676.22;;;13.92;35.50
56600;BME280;51832;48.152;11.530;2023-12-28T13:45:18;95674.56;;;14.02;35.58
56600;BME280;51832;48.152;11.530;2023-12-28T13:50:19;95673.97;;;14.29;35.64
56600;BME280;51832;48.152;11.530;2023-12-28T13:55:20;95677.25;;;14.36;35.86
56600;BME280;51832;48.152;11.530;2023-12-28T14:00:20;95677.81;;;14.21;36.28
56600;BME280;51832;48.152;11.530;2023-12-28T14:05:21;95679.66;;;14.20;36.64
56600;BME280;51832;48.152;11.530;2023-12-28T14:10:23;95677.09;;;14.26;36.91
56600;BME280;51832;48.152;11.530;2023-12-28T14:15:24;95690.38;;;14.14;37.13
56600;BME280;51832;48.152;11.530;2023-12-28T14:20:24;95687.66;;;14.26;37.20
56600;BME280;51832;48.152;11.530;2023-12-28T14:25:26;95687.13;;;13.95;37.77
56600;BME280;51832;48.152;11.530;2023-12-28T14:30:27;95684.28;;;14.13;37.89
56600;BME280;51832;48.152;11.530;2023-12-28T14:35:27;95682.84;;;14.06;38.15
56600;BME280;51832;48.152;11.530;2023-12-28T14:40:28;95676.06;;;13.98;38.15
56600;BME280;51832;48.152;11.530;2023-12-28T14:45:29;95679.66;;;14.20;38.04
56600;BME280;51832;48.152;11.530;2023-12-28T14:50:29;95685.00;;;13.80;38.42
56600;BME280;51832;48.152;11.530;2023-12-28T14:55:29;95682.84;;;13.77;38.83
56600;BME280;51832;48.152;11.530;2023-12-28T15:00:30;95680.09;;;13.72;38.94
56600;BME280;51832;48.152;11.530;2023-12-28T15:05:30;95678.63;;;13.65;39.07
56600;BME280;51832;48.152;11.530;2023-12-28T15:10:31;95689.97;;;13.77;38.31
56600;BME280;51832;48.152;11.530;2023-12-28T15:15:32;95690.81;;;13.66;38.15
56600;BME280;51832;48.152;11.530;2023-12-28T15:20:33;95688.75;;;13.56;37.44
56600;BME280;51832;48.152;11.530;2023-12-28T15:25:33;95697.09;;;13.76;36.93
56600;BME280;51832;48.152;11.530;2023-12-28T15:30:34;95697.91;;;13.77;36.32
56600;BME280;51832;48.152;11.530;2023-12-28T15:35:37;95704.84;;;13.55;36.40
56600;BME280;51832;48.152;11.530;2023-12-28T15:40:38;95699.50;;;13.38;36.72
56600;BME280;51832;48.152;11.530;2023-12-28T15:45:39;95698.69;;;13.26;36.46
56600;BME280;51832;48.152;11.530;2023-12-28T15:50:39;95694.66;;;13.46;36.42
56600;BME280;51832;48.152;11.530;2023-12-28T15:55:40;95694.16;;;13.61;35.67
56600;BME280;51832;48.152;11.530;2023-12-28T16:00:40;95696.06;;;13.77;35.40
56600;BME280;51832;48.152;11.530;2023-12-28T16:05:43;95688.75;;;13.56;35.42
56600;BME280;51832;48.152;11.530;2023-12-28T16:10:44;95671.06;;;13.85;35.00
56600;BME280;51832;48.152;11.530;2023-12-28T16:15:44;95685.44;;;13.89;34.85
56600;BME280;51832;48.152;11.530;2023-12-28T16:20:45;95684.75;;;13.82;35.32
56600;BME280;51832;48.152;11.530;2023-12-28T16:25:46;95682.44;;;13.85;34.81
56600;BME280;51832;48.152;11.530;2023-12-28T16:30:46;95680.25;;;13.66;35.66
56600;BME280;51832;48.152;11.530;2023-12-28T16:35:47;95688.28;;;13.59;35.61
56600;BME280;51832;48.152;11.530;2023-12-28T16:40:47;95685.66;;;13.59;35.78
56600;BME280;51832;48.152;11.530;2023-12-28T16:45:48;95678.81;;;13.35;36.49
56600;BME280;51832;48.152;11.530;2023-12-28T16:50:49;95689.13;;;13.48;36.48
56600;BME280;51832;48.152;11.530;2023-12-28T16:55:50;95687.31;;;13.37;36.93
56600;BME280;51832;48.152;11.530;2023-12-28T17:00:50;95683.34;;;13.63;36.56
56600;BME280;51832;48.152;11.530;2023-12-28T17:05:51;95677.34;;;13.15;37.36
56600;BME280;51832;48.152;11.530;2023-12-28T17:10:51;95679.28;;;13.08;37.83
56600;BME280;51832;48.152;11.530;2023-12-28T17:15:52;95682.75;;;13.09;37.65
56600;BME280;51832;48.152;11.530;2023-12-28T17:20:53;95674.91;;;13.14;37.76
56600;BME280;51832;48.152;11.530;2023-12-28T17:26:03;95678.84;;;13.11;37.95
56600;BME280;51832;48.152;11.530;2023-12-28T17:31:07;95681.81;;;13.15;38.23
56600;BME280;51832;48.152;11.530;2023-12-28T17:36:10;95672.50;;;13.01;38.51
56600;BME280;51832;48.152;11.530;2023-12-28T17:41:12;95655.50;;;13.08;38.72
56600;BME280;51832;48.152;11.530;2023-12-28T17:51:38;95680.00;;;13.15;38.88
56600;BME280;51832;48.152;11.530;2023-12-28T17:56:40;95676.91;;;12.84;39.35
56600;BME280;51832;48.152;11.530;2023-12-28T18:01:40;95659.28;;;13.12;38.80
56600;BME280;51832;48.152;11.530;2023-12-28T18:06:41;95671.63;;;12.84;39.36
56600;BME280;51832;48.152;11.530;2023-12-28T18:11:41;95662.75;;;13.25;39.37
56600;BME280;51832;48.152;11.530;2023-12-28T18:16:42;95654.69;;;13.31;39.01
56600;BME280;51832;48.152;11.530;2023-12-28T18:21:42;95651.03;;;13.09;39.66
56600;BME280;51832;48.152;11.530;2023-12-28T18:26:42;95673.66;;;12.93;40.78
56600;BME280;51832;48.152;11.530;2023-12-28T18:31:45;95664.47;;;13.07;40.41
56600;BME280;51832;48.152;11.530;2023-12-28T18:36:47;95653.78;;;13.02;41.29
56600;BME280;51832;48.152;11.530;2023-12-28T18:41:49;95654.94;;;12.95;41.57
56600;BME280;51832;48.152;11.530;2023-12-28T18:46:49;95635.28;;;13.26;41.48
56600;BME280;51832;48.152;11.530;2023-12-28T18:51:50;95641.59;;;13.01;41.64
56600;BME280;51832;48.152;11.530;2023-12-28T18:56:50;95633.31;;;13.33;41.00
56600;BME280;51832;48.152;11.530;2023-12-28T19:01:51;95639.66;;;13.20;41.16
56600;BME280;51832;48.152;11.530;2023-12-28T19:06:52;95638.47;;;13.39;40.65
56600;BME280;51832;48.152;11.530;2023-12-28T19:11:52;95645.88;;;13.54;39.91
56600;BME280;51832;48.152;11.530;2023-12-28T19:16:53;95643.22;;;13.66;39.62
56600;BME280;51832;48.152;11.530;2023-12-28T19:21:53;95631.72;;;13.32;39.69
56600;BME280;51832;48.152;11.530;2023-12-28T19:26:54;95627.63;;;13.52;39.35
56600;BME280;51832;48.152;11.530;2023-12-28T19:31:54;95633.31;;;13.33;39.35
56600;BME280;51832;48.152;11.530;2023-12-28T19:36:55;95615.69;;;13.50;38.89
56600;BME280;51832;48.152;11.530;2023-12-28T19:41:56;95620.63;;;13.46;39.00
56600;BME280;51832;48.152;11.530;2023-12-28T19:46:56;95621.25;;;13.37;38.53
56600;BME280;51832;48.152;11.530;2023-12-28T19:51:57;95614.50;;;13.06;38.48
56600;BME280;51832;48.152;11.530;2023-12-28T19:56:57;95632.56;;;12.62;38.48
56600;BME280;51832;48.152;11.530;2023-12-28T20:01:57;95615.00;;;13.43;37.36
56600;BME280;51832;48.152;11.530;2023-12-28T20:06:58;95619.09;;;12.99;38.16
56600;BME280;51832;48.152;11.530;2023-12-28T20:11:59;95618.41;;;13.15;38.43
56600;BME280;51832;48.152;11.530;2023-12-28T20:17:00;95619.06;;;13.34;38.39
56600;BME280;51832;48.152;11.530;2023-12-28T20:22:00;95620.84;;;12.93;39.54
56600;BME280;51832;48.152;11.530;2023-12-28T20:27:00;95632.22;;;12.94;39.69
56600;BME280;51832;48.152;11.530;2023-12-28T20:32:01;95624.88;;;12.96;39.48
56600;BME280;51832;48.152;11.530;2023-12-28T20:37:02;95629.41;;;13.12;39.22
56600;BME280;51832;48.152;11.530;2023-12-28T20:42:03;95632.16;;;13.29;38.91
56600;BME280;51832;48.152;11.530;2023-12-28T20:47:04;95631.94;;;13.30;39.17
56600;BME280;51832;48.152;11.530;2023-12-28T20:52:05;95649.50;;;13.13;39.88
56600;BME280;51832;48.152;11.530;2023-12-28T20:57:05;95644.94;;;13.20;40.56
56600;BME280;51832;48.152;11.530;2023-12-28T21:02:06;95650.94;;;13.15;41.07
56600;BME280;51832;48.152;11.530;2023-12-28T21:07:07;95638.88;;;13.20;41.74
56600;BME280;51832;48.152;11.530;2023-12-28T21:12:08;95639.13;;;12.83;41.13
56600;BME280;51832;48.152;11.530;2023-12-28T21:17:10;95653.88;;;12.14;41.43
56600;BME280;51832;48.152;11.530;2023-12-28T21:22:10;95649.88;;;11.82;42.29
56600;BME280;51832;48.152;11.530;2023-12-28T21:27:11;95651.97;;;12.03;41.57
56600;BME280;51832;48.152;11.530;2023-12-28T21:32:11;95665.97;;;12.03;42.36
56600;BME280;51832;48.152;11.530;2023-12-28T21:37:12;95651.94;;;11.91;43.38
56600;BME280;51832;48.152;11.530;2023-12-28T21:42:13;95660.75;;;12.15;43.58
56600;BME280;51832;48.152;11.530;2023-12-28T21:47:13;95659.25;;;11.78;46.96
56600;BME280;51832;48.152;11.530;2023-12-28T21:52:14;95664.00;;;11.87;48.34
56600;BME280;51832;48.152;11.530;2023-12-28T21:57:15;95666.72;;;11.81;50.48
56600;BME280;51832;48.152;11.530;2023-12-28T22:02:16;95664.06;;;11.81;52.68
56600;BME280;51832;48.152;11.530;2023-12-28T22:07:16;95670.53;;;12.26;53.15
56600;BME280;51832;48.152;11.530;2023-12-28T22:12:17;95666.69;;;12.10;55.99
56600;BME280;51832;48.152;11.530;2023-12-28T22:17:17;95682.38;;;12.05;58.08
56600;BME280;51832;48.152;11.530;2023-12-28T22:22:18;95678.78;;;11.70;62.29
56600;BME280;51832;48.152;11.530;2023-12-28T22:27:18;95686.59;;;11.95;65.03
56600;BME280;51832;48.152;11.530;2023-12-28T22:32:19;95676.22;;;11.82;66.83
56600;BME280;51832;48.152;11.530;2023-12-28T22:37:19;95685.19;;;11.92;68.82
56600;BME280;51832;48.152;11.530;2023-12-28T22:42:20;95684.75;;;12.25;68.19
56600;BME280;51832;48.152;11.530;2023-12-28T22:47:20;95685.03;;;12.17;69.04
56600;BME280;51832;48.152;11.530;2023-12-28T22:52:23;95689.44;;;11.93;70.11
56600;BME280;51832;48.152;11.530;2023-12-28T22:57:24;95690.00;;;11.84;70.88
56600;BME280;51832;48.152;11.530;2023-12-28T23:02:25;95706.94;;;11.39;71.30
56600;BME280;51832;48.152;11.530;2023-12-28T23:07:25;95700.31;;;11.67;70.79
56600;BME280;51832;48.152;11.530;2023-12-28T23:12:26;95699.75;;;11.83;69.87
56600;BME280;51832;48.152;11.530;2023-12-28T23:17:27;95685.19;;;11.44;71.50
56600;BME280;51832;48.152;11.530;2023-12-28T23:22:27;95670.25;;;11.56;71.13
56600;BME280;51832;48.152;11.530;2023-12-28T23:27:30;95665.72;;;11.45;72.24
56600;BME280;51832;48.152;11.530;2023-12-28T23:32:30;95669.41;;;11.74;70.76
56600;BME280;51832;48.152;11.530;2023-12-28T23:37:31;95660.66;;;11.92;70.46
56600;BME280;51832;48.152;11.530;2023-12-28T23:42:32;95659.53;;;11.88;70.31
56600;BME280;51832;48.152;11.530;2023-12-28T23:47:33;95656.91;;;11.88;70.16
56600;BME280;51832;48.152;11.530;2023-12-28T23:52:33;95655.44;;;11.73;70.57
56600;BME280;51832;48.152;11.530;2023-12-28T23:57:34;95658.53;;;11.52;71.61
